createdAt,value
2022-12-29T00:00:02.183Z,23.88
2022-12-29T00:02:29.690Z,24.38
2022-12-29T00:04:57.324Z,19.27
2022-12-29T00:07:24.621Z,15.40
2022-12-29T00:09:51.996Z,26.67
2022-12-29T00:12:19.352Z,17.27
2022-12-29T00:15:05.310Z,16.25
2022-12-29T00:17:32.733Z,18.08
2022-12-29T00:20:18.614Z,19.98
2022-12-29T00:23:04.467Z,17.77
2022-12-29T00:25:50.412Z,19.42
2022-12-29T00:28:36.236Z,16.63
2022-12-29T00:31:23.559Z,16.77
2022-12-29T00:34:09.362Z,17.73
2022-12-29T00:36:40.334Z,21.65
2022-12-29T00:39:37.921Z,19.98
2022-12-29T00:42:25.363Z,17.92
2022-12-29T00:44:52.871Z,16.83
2022-12-29T00:47:20.214Z,25.05
2022-12-29T00:49:47.659Z,19.23
2022-12-29T00:52:15.258Z,15.90
2022-12-29T00:54:45.821Z,23.95
2022-12-29T00:57:13.530Z,16.67
2022-12-29T00:59:42.108Z,18.65
2022-12-29T01:02:10.578Z,15.05
2022-12-29T01:04:38.347Z,23.02
2022-12-29T01:07:05.792Z,26.52
2022-12-29T01:09:51.753Z,22.88
2022-12-29T01:12:39.207Z,20.20
2022-12-29T01:15:07.895Z,20.23
2022-12-29T01:17:35.513Z,14.32
2022-12-29T01:20:04.106Z,18.23
2022-12-29T01:22:31.489Z,18.58
2022-12-29T01:24:58.934Z,19.05
2022-12-29T01:27:26.845Z,19.63
2022-12-29T01:29:54.324Z,21.08
2022-12-29T01:32:21.731Z,13.02
2022-12-29T01:34:49.168Z,14.07
2022-12-29T01:37:16.537Z,10.90
2022-12-29T01:39:45.484Z,19.85
2022-12-29T01:42:18.517Z,14.65
2022-12-29T01:45:13.856Z,6.97
2022-12-29T01:47:49.408Z,13.20
2022-12-29T01:50:26.082Z,11.95
2022-12-29T01:53:10.269Z,13.82
2022-12-29T01:55:45.404Z,13.38
2022-12-29T01:58:15.177Z,28.20
2022-12-29T02:00:42.675Z,19.48
2022-12-29T02:03:11.337Z,17.58
2022-12-29T02:05:48.766Z,18.55
2022-12-29T02:08:16.437Z,24.30
2022-12-29T02:10:45.058Z,20.50
2022-12-29T02:13:12.516Z,22.63
2022-12-29T02:16:13.565Z,22.92
2022-12-29T02:19:08.153Z,14.00
2022-12-29T02:21:40.948Z,13.82
2022-12-29T02:24:32.521Z,14.55
2022-12-29T02:27:30.246Z,23.25
2022-12-29T02:30:21.876Z,23.92
2022-12-29T02:33:14.337Z,22.08
2022-12-29T02:36:16.512Z,24.92
2022-12-29T02:38:57.253Z,21.02
2022-12-29T02:41:50.492Z,25.00
2022-12-29T02:44:44.290Z,20.30
2022-12-29T02:47:41.230Z,21.70
2022-12-29T02:50:29.234Z,19.00
2022-12-29T02:53:01.245Z,27.10
2022-12-29T02:55:28.902Z,30.50
2022-12-29T02:58:23.260Z,27.95
2022-12-29T03:01:21.814Z,24.30
2022-12-29T03:04:04.905Z,22.58
2022-12-29T03:06:52.942Z,17.08
2022-12-29T03:09:44.532Z,30.02
2022-12-29T03:13:01.473Z,22.23
2022-12-29T03:15:59.407Z,21.15
2022-12-29T03:18:34.134Z,27.90
2022-12-29T03:21:47.199Z,25.45
2022-12-29T03:24:16.211Z,20.98
2022-12-29T03:26:48.456Z,18.17
2022-12-29T03:29:17.908Z,31.80
2022-12-29T03:31:46.639Z,25.83
2022-12-29T03:34:15.593Z,19.30
2022-12-29T03:36:53.579Z,22.35
2022-12-29T03:39:24.749Z,22.45
2022-12-29T03:44:37.296Z,16.65
2022-12-29T03:47:04.972Z,32.55
2022-12-29T03:49:32.983Z,24.63
2022-12-29T03:52:01.490Z,17.10
2022-12-29T03:54:28.957Z,20.25
2022-12-29T03:56:56.345Z,15.07
2022-12-29T03:59:23.937Z,29.38
2022-12-29T04:01:51.567Z,20.42
2022-12-29T04:04:19.082Z,26.98
2022-12-29T04:06:46.411Z,24.42
2022-12-29T04:09:13.757Z,21.75
2022-12-29T04:11:41.086Z,22.75
2022-12-29T04:14:08.421Z,26.00
2022-12-29T04:16:36.856Z,25.50
2022-12-29T04:19:04.296Z,28.33
2022-12-29T04:21:31.713Z,19.38
2022-12-29T04:23:59.343Z,26.42
2022-12-29T04:26:27.139Z,26.55
2022-12-29T04:28:54.508Z,19.15
2022-12-29T04:31:21.908Z,22.88
2022-12-29T04:33:49.327Z,32.80
2022-12-29T04:36:16.667Z,29.67
2022-12-29T04:38:46.096Z,18.40
2022-12-29T04:41:13.498Z,23.55
2022-12-29T04:43:41.045Z,20.13
2022-12-29T04:46:08.457Z,21.80
2022-12-29T04:48:35.859Z,20.65
2022-12-29T04:51:03.284Z,14.70
2022-12-29T04:53:30.708Z,21.38
2022-12-29T04:55:58.030Z,19.42
2022-12-29T04:58:25.389Z,16.45
2022-12-29T05:00:52.895Z,21.52
2022-12-29T05:03:20.515Z,25.73
2022-12-29T05:05:47.928Z,22.00
2022-12-29T05:08:15.317Z,9.45
2022-12-29T05:10:45.995Z,12.00
2022-12-29T05:13:13.725Z,15.60
2022-12-29T05:15:41.962Z,13.52
2022-12-29T05:18:09.323Z,18.85
2022-12-29T05:20:36.753Z,17.60
2022-12-29T05:23:04.123Z,7.30
2022-12-29T05:25:31.516Z,17.67
2022-12-29T05:27:58.874Z,22.38
2022-12-29T05:30:26.206Z,19.58
2022-12-29T05:32:53.588Z,11.52
2022-12-29T05:35:20.954Z,18.52
2022-12-29T05:37:48.335Z,14.00
2022-12-29T05:40:15.718Z,15.43
2022-12-29T05:42:43.051Z,14.65
2022-12-29T05:45:10.647Z,15.27
2022-12-29T05:47:37.959Z,11.40
2022-12-29T05:50:05.597Z,17.95
2022-12-29T05:52:33.025Z,10.65
2022-12-29T05:55:00.887Z,10.43
2022-12-29T05:57:28.214Z,11.73
2022-12-29T05:59:55.595Z,14.98
2022-12-29T06:02:23.311Z,9.85
2022-12-29T06:04:51.451Z,25.60
2022-12-29T06:07:18.899Z,3.70
2022-12-29T06:09:46.221Z,6.78
2022-12-29T06:12:13.640Z,8.95
2022-12-29T06:14:41.483Z,10.70
2022-12-29T06:17:08.941Z,7.05
2022-12-29T06:19:36.640Z,5.32
2022-12-29T06:22:04.068Z,6.88
2022-12-29T06:24:31.691Z,9.27
2022-12-29T06:26:59.195Z,6.85
2022-12-29T06:29:26.644Z,3.03
2022-12-29T06:31:57.242Z,5.75
2022-12-29T06:34:25.578Z,5.55
2022-12-29T06:36:53.018Z,10.07
2022-12-29T06:39:20.365Z,9.27
2022-12-29T06:41:47.705Z,1.58
2022-12-29T06:44:15.099Z,7.35
2022-12-29T06:46:42.509Z,3.70
2022-12-29T06:49:09.894Z,6.93
2022-12-29T06:51:37.382Z,3.28
2022-12-29T06:54:04.952Z,8.50
2022-12-29T06:56:32.372Z,5.35
2022-12-29T06:59:02.068Z,6.05
2022-12-29T07:01:29.764Z,7.68
2022-12-29T07:03:57.283Z,6.50
2022-12-29T07:06:24.805Z,7.97
2022-12-29T07:08:55.160Z,4.15
2022-12-29T07:11:22.898Z,4.25
2022-12-29T07:13:51.103Z,8.23
2022-12-29T07:16:18.533Z,8.65
2022-12-29T07:18:45.898Z,3.47
2022-12-29T07:21:13.227Z,4.53
2022-12-29T07:23:40.734Z,5.43
2022-12-29T07:26:10.884Z,4.88
2022-12-29T07:28:39.164Z,5.07
2022-12-29T07:31:07.319Z,5.50
2022-12-29T07:33:34.686Z,6.13
2022-12-29T07:36:02.132Z,8.10
2022-12-29T07:38:29.762Z,10.02
2022-12-29T07:41:00.337Z,9.93
2022-12-29T07:43:28.048Z,6.55
2022-12-29T07:45:55.504Z,5.68
2022-12-29T07:48:23.530Z,4.63
2022-12-29T07:50:51.465Z,8.13
2022-12-29T07:53:18.819Z,6.50
2022-12-29T07:55:46.231Z,3.05
2022-12-29T07:58:13.704Z,3.67
2022-12-29T08:00:41.218Z,5.53
2022-12-29T08:03:08.596Z,4.90
2022-12-29T08:05:35.968Z,8.27
2022-12-29T08:08:03.401Z,7.38
2022-12-29T08:10:30.816Z,7.13
2022-12-29T08:12:58.995Z,12.55
2022-12-29T08:15:32.190Z,5.90
2022-12-29T08:18:00.086Z,6.90
2022-12-29T08:20:27.573Z,4.93
2022-12-29T08:22:55.092Z,4.80
2022-12-29T08:25:22.601Z,8.07
2022-12-29T08:27:49.986Z,8.20
2022-12-29T08:30:17.560Z,9.57
2022-12-29T08:32:44.937Z,5.30
2022-12-29T08:35:13.690Z,5.95
2022-12-29T08:37:41.162Z,7.95
2022-12-29T08:40:09.260Z,10.32
2022-12-29T08:42:36.683Z,5.75
2022-12-29T08:45:04.786Z,1.90
2022-12-29T08:47:32.273Z,12.65
2022-12-29T08:49:59.708Z,4.25
2022-12-29T08:52:27.249Z,3.40
2022-12-29T08:54:54.629Z,8.13
2022-12-29T08:57:22.022Z,4.72
2022-12-29T08:59:49.426Z,5.05
2022-12-29T09:02:23.702Z,4.10
2022-12-29T09:04:52.768Z,3.75
2022-12-29T09:07:20.247Z,3.97
2022-12-29T09:09:47.587Z,10.20
2022-12-29T09:12:15.089Z,12.38
2022-12-29T09:14:43.813Z,9.50
2022-12-29T09:17:30.083Z,5.07
2022-12-29T09:19:57.584Z,5.82
2022-12-29T09:22:25.005Z,5.30
2022-12-29T09:24:52.365Z,6.20
2022-12-29T09:27:19.714Z,5.03
2022-12-29T09:29:47.433Z,6.30
2022-12-29T09:32:18.607Z,3.13
2022-12-29T09:34:46.667Z,7.75
2022-12-29T09:37:14.149Z,10.55
2022-12-29T09:39:41.717Z,8.27
2022-12-29T09:42:09.023Z,9.13
2022-12-29T09:44:49.081Z,7.00
2022-12-29T09:47:18.253Z,3.50
2022-12-29T09:49:50.836Z,3.13
2022-12-29T09:52:30.355Z,4.32
2022-12-29T09:55:14.988Z,6.95
2022-12-29T09:57:47.533Z,6.63
2022-12-29T10:00:20.755Z,7.88
2022-12-29T10:03:03.616Z,1.50
2022-12-29T10:05:49.230Z,5.80
2022-12-29T10:08:33.315Z,2.75
2022-12-29T10:11:19.103Z,1.95
2022-12-29T10:14:12.311Z,5.95
2022-12-29T10:17:15.560Z,2.22
2022-12-29T10:19:57.891Z,3.40
2022-12-29T10:22:46.442Z,6.90
2022-12-29T10:25:25.112Z,7.28
2022-12-29T10:27:58.841Z,4.43
2022-12-29T10:30:26.625Z,10.77
2022-12-29T10:33:02.204Z,3.58
2022-12-29T10:35:41.485Z,2.70
2022-12-29T10:38:28.732Z,3.47
2022-12-29T10:41:06.617Z,1.85
2022-12-29T10:43:48.313Z,3.47
2022-12-29T10:46:21.316Z,1.75
2022-12-29T10:48:48.726Z,5.30
2022-12-29T10:51:35.505Z,4.68
2022-12-29T10:54:24.548Z,3.97
2022-12-29T10:56:57.728Z,7.47
2022-12-29T10:59:31.189Z,3.75
2022-12-29T11:02:10.930Z,8.50
2022-12-29T11:05:01.103Z,7.13
2022-12-29T11:07:28.593Z,0.95
2022-12-29T11:09:55.994Z,4.85
2022-12-29T11:12:31.953Z,2.78
2022-12-29T11:15:11.089Z,8.00
2022-12-29T11:17:57.999Z,6.20
2022-12-29T11:20:35.999Z,7.63
2022-12-29T11:23:05.926Z,3.35
2022-12-29T11:25:33.498Z,5.07
2022-12-29T11:28:02.457Z,6.53
2022-12-29T11:30:32.839Z,9.73
2022-12-29T11:33:04.693Z,3.97
2022-12-29T11:35:35.914Z,5.80
2022-12-29T11:38:04.616Z,5.60
2022-12-29T11:40:32.651Z,5.60
2022-12-29T11:43:05.147Z,5.05
2022-12-29T11:45:36.098Z,3.08
2022-12-29T11:48:19.769Z,6.75
2022-12-29T11:50:54.760Z,5.80
2022-12-29T11:53:28.503Z,7.60
2022-12-29T11:55:59.597Z,8.45
2022-12-29T12:01:26.431Z,9.82
2022-12-29T12:04:05.145Z,7.43
2022-12-29T12:06:37.292Z,6.15
2022-12-29T12:09:11.399Z,11.02
2022-12-29T12:11:44.355Z,10.20
2022-12-29T12:14:28.284Z,7.78
2022-12-29T12:17:03.188Z,8.98
2022-12-29T12:20:22.943Z,8.77
2022-12-29T12:23:10.021Z,7.53
2022-12-29T12:25:49.377Z,14.40
2022-12-29T12:28:36.559Z,8.18
2022-12-29T12:31:17.488Z,8.93
2022-12-29T12:33:51.666Z,8.93
2022-12-29T12:36:59.776Z,15.68
2022-12-29T12:39:35.146Z,8.10
2022-12-29T12:42:11.579Z,7.43
2022-12-29T12:44:53.971Z,29.42
2022-12-29T12:47:48.615Z,11.07
2022-12-29T12:50:20.135Z,5.30
2022-12-29T12:52:59.440Z,16.35
2022-12-29T12:55:54.481Z,7.38
2022-12-29T12:59:13.478Z,11.55
2022-12-29T13:02:14.633Z,8.63
2022-12-29T13:07:27.528Z,8.57
2022-12-29T13:10:20.168Z,10.93
2022-12-29T13:13:24.835Z,13.73
2022-12-29T13:16:29.962Z,7.82
2022-12-29T13:19:07.506Z,11.50
2022-12-29T13:22:06.526Z,13.82
2022-12-29T13:24:43.546Z,7.68
2022-12-29T13:27:17.399Z,12.48
2022-12-29T13:29:51.334Z,12.68
2022-12-29T13:32:18.851Z,9.82
2022-12-29T13:35:14.626Z,10.50
2022-12-29T13:38:27.141Z,12.38
2022-12-29T13:41:00.612Z,13.00
2022-12-29T13:43:30.586Z,12.32
2022-12-29T13:46:10.293Z,12.20
2022-12-29T13:48:39.966Z,5.50
2022-12-29T13:51:10.576Z,12.20
2022-12-29T13:53:50.286Z,14.40
2022-12-29T13:56:31.604Z,6.70
2022-12-29T13:59:23.010Z,8.57
2022-12-29T14:02:18.938Z,11.05
2022-12-29T14:05:03.032Z,11.82
2022-12-29T14:07:36.619Z,12.52
2022-12-29T14:10:05.358Z,7.10
2022-12-29T14:12:42.967Z,13.15
2022-12-29T14:15:10.348Z,9.10
2022-12-29T14:17:39.388Z,6.70
2022-12-29T14:20:20.470Z,7.80
2022-12-29T14:23:17.070Z,12.00
2022-12-29T14:25:59.575Z,5.47
2022-12-29T14:28:32.495Z,22.67
2022-12-29T14:31:04.973Z,6.78
2022-12-29T14:33:34.773Z,7.15
2022-12-29T14:36:34.075Z,10.05
2022-12-29T14:39:01.735Z,7.47
2022-12-29T14:41:34.130Z,11.80
2022-12-29T14:44:15.828Z,8.30
2022-12-29T14:46:58.023Z,6.45
2022-12-29T14:49:33.117Z,12.73
2022-12-29T14:52:15.477Z,7.28
2022-12-29T14:54:50.241Z,13.73
2022-12-29T14:57:33.874Z,10.40
2022-12-29T15:00:07.880Z,11.32
2022-12-29T15:02:41.073Z,6.90
2022-12-29T15:05:25.546Z,4.50
2022-12-29T15:07:54.389Z,7.03
2022-12-29T15:10:23.899Z,5.95
2022-12-29T15:12:55.281Z,8.55
2022-12-29T15:15:28.006Z,6.63
2022-12-29T15:17:55.570Z,8.23
2022-12-29T15:20:22.916Z,13.88
2022-12-29T15:22:55.301Z,11.82
2022-12-29T15:25:23.360Z,7.57
2022-12-29T15:27:58.942Z,9.02
2022-12-29T15:30:26.319Z,7.20
2022-12-29T15:32:53.932Z,9.63
2022-12-29T15:35:25.882Z,10.75
2022-12-29T15:37:53.433Z,11.15
2022-12-29T15:40:39.235Z,14.70
2022-12-29T15:43:31.836Z,8.30
2022-12-29T15:46:02.314Z,7.78
2022-12-29T15:48:31.106Z,8.15
2022-12-29T15:51:00.259Z,10.52
2022-12-29T15:53:37.177Z,5.63
2022-12-29T15:56:15.124Z,11.90
2022-12-29T15:58:49.834Z,12.85
2022-12-29T16:01:28.394Z,10.40
2022-12-29T16:03:56.700Z,13.77
2022-12-29T16:06:29.065Z,9.07
2022-12-29T16:09:05.152Z,12.48
2022-12-29T16:11:39.369Z,10.38
2022-12-29T16:14:32.770Z,10.38
2022-12-29T16:17:04.844Z,8.95
2022-12-29T16:19:38.731Z,10.13
2022-12-29T16:22:33.117Z,10.73
2022-12-29T16:25:35.712Z,8.57
2022-12-29T16:28:15.170Z,8.23
2022-12-29T16:30:42.590Z,11.20
2022-12-29T16:33:34.676Z,10.82
2022-12-29T16:36:02.737Z,10.90
2022-12-29T16:38:35.188Z,9.48
2022-12-29T16:41:03.672Z,13.40
2022-12-29T16:43:35.875Z,14.95
2022-12-29T16:46:03.294Z,9.45
2022-12-29T16:48:51.763Z,10.50
2022-12-29T16:51:29.222Z,6.45
2022-12-29T16:53:57.406Z,6.93
2022-12-29T16:56:28.309Z,12.60
2022-12-29T16:59:23.630Z,9.43
2022-12-29T17:01:51.196Z,10.23
2022-12-29T17:04:18.610Z,14.30
2022-12-29T17:06:45.949Z,13.57
2022-12-29T17:09:22.146Z,16.05
2022-12-29T17:12:00.321Z,12.40
2022-12-29T17:14:46.600Z,8.70
2022-12-29T17:17:17.346Z,9.93
2022-12-29T17:19:52.391Z,15.38
2022-12-29T17:22:26.006Z,12.05
2022-12-29T17:24:55.027Z,15.00
2022-12-29T17:27:42.092Z,13.10
2022-12-29T17:30:17.740Z,15.98
2022-12-29T17:32:59.708Z,15.20
2022-12-29T17:35:28.221Z,4.13
2022-12-29T17:37:55.671Z,10.43
2022-12-29T17:40:27.773Z,11.68
2022-12-29T17:42:57.466Z,13.48
2022-12-29T17:45:27.289Z,16.27
2022-12-29T17:47:54.776Z,9.50
2022-12-29T17:50:25.136Z,13.15
2022-12-29T17:53:03.949Z,8.63
2022-12-29T17:55:37.662Z,9.07
2022-12-29T17:58:19.097Z,12.52
2022-12-29T18:00:51.301Z,14.35
2022-12-29T18:03:23.137Z,13.20
2022-12-29T18:05:50.965Z,17.92
2022-12-29T18:08:18.345Z,10.90
2022-12-29T18:10:47.604Z,9.73
2022-12-29T18:13:33.588Z,7.72
2022-12-29T18:16:07.950Z,9.93
2022-12-29T18:18:35.404Z,7.88
2022-12-29T18:21:02.898Z,13.13
2022-12-29T18:23:32.739Z,14.38
2022-12-29T18:26:15.626Z,14.85
2022-12-29T18:28:44.651Z,20.88
2022-12-29T18:31:22.352Z,8.85
2022-12-29T18:33:51.346Z,11.15
2022-12-29T18:36:19.634Z,15.68
2022-12-29T18:38:47.415Z,12.38
2022-12-29T18:41:31.555Z,11.15
2022-12-29T18:44:00.030Z,8.82
2022-12-29T18:46:27.788Z,12.93
2022-12-29T18:48:55.428Z,7.95
2022-12-29T18:51:26.491Z,9.30
2022-12-29T18:53:54.903Z,15.05
2022-12-29T18:56:23.511Z,12.52
2022-12-29T18:58:51.535Z,17.08
2022-12-29T19:01:24.693Z,13.10
2022-12-29T19:03:52.532Z,9.45
2022-12-29T19:06:21.364Z,10.52
2022-12-29T19:08:48.841Z,11.45
2022-12-29T19:11:17.827Z,11.57
2022-12-29T19:13:45.335Z,10.02
2022-12-29T19:16:21.770Z,11.20
2022-12-29T19:19:04.096Z,11.27
2022-12-29T19:21:37.291Z,15.40
2022-12-29T19:24:05.093Z,19.00
2022-12-29T19:26:37.898Z,11.27
2022-12-29T19:29:13.943Z,15.52
2022-12-29T19:31:41.472Z,13.70
2022-12-29T19:34:11.803Z,14.02
2022-12-29T19:36:39.184Z,18.30
2022-12-29T19:39:06.614Z,12.23
2022-12-29T19:41:34.018Z,11.35
2022-12-29T19:44:01.754Z,17.52
2022-12-29T19:46:29.263Z,17.52
2022-12-29T19:48:59.028Z,12.90
2022-12-29T19:51:27.334Z,12.60
2022-12-29T19:53:55.398Z,14.07
2022-12-29T19:56:22.960Z,12.18
2022-12-29T19:58:50.817Z,13.05
2022-12-29T20:01:21.354Z,14.38
2022-12-29T20:03:49.578Z,12.20
2022-12-29T20:06:18.228Z,14.38
2022-12-29T20:08:45.689Z,14.18
2022-12-29T20:11:16.266Z,19.48
2022-12-29T20:13:44.452Z,16.92
2022-12-29T20:16:15.042Z,9.70
2022-12-29T20:18:43.083Z,12.45
2022-12-29T20:21:19.911Z,19.67
2022-12-29T20:23:48.325Z,10.32
2022-12-29T20:26:21.151Z,12.50
2022-12-29T20:28:49.288Z,10.73
2022-12-29T20:31:21.378Z,17.80
2022-12-29T20:33:49.239Z,13.23
2022-12-29T20:36:20.451Z,13.82
2022-12-29T20:38:49.376Z,20.75
2022-12-29T20:41:17.548Z,19.27
2022-12-29T20:43:45.225Z,10.77
2022-12-29T20:46:18.106Z,16.23
2022-12-29T20:48:48.790Z,14.43
2022-12-29T20:51:16.319Z,11.50
2022-12-29T20:53:43.801Z,11.05
2022-12-29T20:56:15.173Z,13.57
2022-12-29T20:59:17.103Z,13.90
2022-12-29T21:01:30.495Z,15.27
2022-12-29T21:03:58.111Z,11.25
2022-12-29T21:06:25.958Z,12.35
2022-12-29T21:08:55.107Z,12.10
2022-12-29T21:11:22.792Z,8.38
2022-12-29T21:13:50.443Z,11.10
2022-12-29T21:16:21.057Z,23.10
2022-12-29T21:18:49.791Z,8.85
2022-12-29T21:21:23.069Z,9.18
2022-12-29T21:23:51.349Z,13.05
2022-12-29T21:26:21.449Z,14.63
2022-12-29T21:28:49.298Z,12.98
2022-12-29T21:31:32.334Z,11.25
2022-12-29T21:34:00.539Z,12.68
2022-12-29T21:36:28.953Z,11.25
2022-12-29T21:38:58.309Z,15.98
2022-12-29T21:41:25.812Z,13.18
2022-12-29T21:44:12.068Z,12.10
2022-12-29T21:46:42.003Z,9.48
2022-12-29T21:49:09.653Z,16.35
2022-12-29T21:51:53.811Z,10.23
2022-12-29T21:54:48.540Z,22.10
2022-12-29T21:57:37.586Z,18.42
2022-12-29T22:00:25.701Z,14.50
2022-12-29T22:03:20.053Z,12.68
2022-12-29T22:06:09.491Z,18.27
2022-12-29T22:08:55.956Z,19.73
2022-12-29T22:11:41.614Z,10.60
2022-12-29T22:14:09.165Z,10.57
2022-12-29T22:16:36.750Z,13.27
2022-12-29T22:19:04.260Z,9.73
2022-12-29T22:21:31.987Z,14.40
2022-12-29T22:24:00.635Z,10.13
2022-12-29T22:26:28.006Z,12.98
2022-12-29T22:28:55.501Z,12.90
2022-12-29T22:31:29.646Z,8.23
2022-12-29T22:33:59.097Z,14.52
2022-12-29T22:36:27.919Z,11.05
2022-12-29T22:38:55.370Z,8.23
2022-12-29T22:41:22.976Z,8.85
2022-12-29T22:43:50.426Z,11.80
2022-12-29T22:46:17.919Z,10.35
2022-12-29T22:48:45.394Z,9.38
2022-12-29T22:51:13.860Z,10.00
2022-12-29T22:53:42.085Z,15.85
2022-12-29T22:56:13.943Z,16.92
2022-12-29T22:58:46.483Z,10.93
2022-12-29T23:01:17.168Z,17.15
2022-12-29T23:03:45.321Z,12.45
2022-12-29T23:06:14.881Z,14.57
2022-12-29T23:08:43.356Z,16.02
2022-12-29T23:11:12.565Z,15.82
2022-12-29T23:13:41.673Z,10.07
2022-12-29T23:16:09.173Z,11.63
2022-12-29T23:18:37.076Z,17.23
2022-12-29T23:21:04.804Z,13.57
2022-12-29T23:23:50.946Z,10.05
2022-12-29T23:26:30.978Z,15.63
2022-12-29T23:29:00.684Z,14.25
2022-12-29T23:31:29.256Z,11.30
2022-12-29T23:33:57.642Z,14.23
2022-12-29T23:36:25.554Z,16.15
2022-12-29T23:38:52.909Z,10.30
2022-12-29T23:41:20.674Z,11.60
2022-12-29T23:43:48.364Z,15.98
2022-12-29T23:46:21.713Z,9.63
2022-12-29T23:48:49.426Z,12.68
2022-12-29T23:51:17.467Z,15.25
2022-12-29T23:53:45.932Z,13.05
2022-12-29T23:56:18.331Z,7.07
2022-12-29T23:58:46.542Z,14.00
